sensor_id;sensor_type;location;lat;lon;timestamp;P1;durP1;ratioP1;P2;durP2;ratioP2
32475;SDS011;18929;48.008;10.882;2022-08-03T00:01:07;5.45;;;1.15;;
32475;SDS011;18929;48.008;10.882;2022-08-03T00:03:35;3.85;;;1.30;;
32475;SDS011;18929;48.008;10.882;2022-08-03T00:06:03;2.17;;;1.13;;
32475;SDS011;18929;48.008;10.882;2022-08-03T00:08:30;4.90;;;1.10;;
32475;SDS011;18929;48.008;10.882;2022-08-03T00:10:58;1.88;;;1.10;;
32475;SDS011;18929;48.008;10.882;2022-08-03T00:13:25;3.70;;;1.27;;
32475;SDS011;18929;48.008;10.882;2022-08-03T00:15:52;4.22;;;1.20;;
32475;SDS011;18929;48.008;10.882;2022-08-03T00:18:19;2.55;;;1.20;;
32475;SDS011;18929;48.008;10.882;2022-08-03T00:20:48;3.53;;;1.30;;
32475;SDS011;18929;48.008;10.882;2022-08-03T00:23:15;1.90;;;1.08;;
32475;SDS011;18929;48.008;10.882;2022-08-03T00:25:42;3.83;;;1.30;;
32475;SDS011;18929;48.008;10.882;2022-08-03T00:28:09;3.88;;;1.05;;
32475;SDS011;18929;48.008;10.882;2022-08-03T00:30:36;1.73;;;1.20;;
32475;SDS011;18929;48.008;10.882;2022-08-03T00:33:03;2.20;;;1.13;;
32475;SDS011;18929;48.008;10.882;2022-08-03T00:35:30;3.72;;;1.50;;
32475;SDS011;18929;48.008;10.882;2022-08-03T00:37:59;3.05;;;1.20;;
32475;SDS011;18929;48.008;10.882;2022-08-03T00:40:26;3.70;;;1.20;;
32475;SDS011;18929;48.008;10.882;2022-08-03T00:42:54;2.70;;;1.15;;
32475;SDS011;18929;48.008;10.882;2022-08-03T00:45:23;2.47;;;1.20;;
32475;SDS011;18929;48.008;10.882;2022-08-03T00:47:51;2.80;;;1.30;;
32475;SDS011;18929;48.008;10.882;2022-08-03T00:50:18;3.47;;;1.10;;
32475;SDS011;18929;48.008;10.882;2022-08-03T00:52:47;2.97;;;1.45;;
32475;SDS011;18929;48.008;10.882;2022-08-03T00:55:16;5.95;;;1.20;;
32475;SDS011;18929;48.008;10.882;2022-08-03T00:57:44;4.85;;;1.30;;
32475;SDS011;18929;48.008;10.882;2022-08-03T01:00:12;2.15;;;1.40;;
32475;SDS011;18929;48.008;10.882;2022-08-03T01:02:41;3.42;;;1.10;;
32475;SDS011;18929;48.008;10.882;2022-08-03T01:05:08;4.60;;;1.15;;
32475;SDS011;18929;48.008;10.882;2022-08-03T01:07:39;3.03;;;1.15;;
32475;SDS011;18929;48.008;10.882;2022-08-03T01:10:12;5.45;;;1.70;;
32475;SDS011;18929;48.008;10.882;2022-08-03T01:12:51;3.33;;;1.05;;
32475;SDS011;18929;48.008;10.882;2022-08-03T01:15:26;1.88;;;1.20;;
32475;SDS011;18929;48.008;10.882;2022-08-03T01:18:02;2.60;;;1.25;;
32475;SDS011;18929;48.008;10.882;2022-08-03T01:20:35;4.03;;;1.40;;
32475;SDS011;18929;48.008;10.882;2022-08-03T01:26:05;2.95;;;1.30;;
32475;SDS011;18929;48.008;10.882;2022-08-03T01:28:45;2.10;;;1.27;;
32475;SDS011;18929;48.008;10.882;2022-08-03T01:34:21;2.97;;;1.17;;
32475;SDS011;18929;48.008;10.882;2022-08-03T01:36:50;3.33;;;1.13;;
32475;SDS011;18929;48.008;10.882;2022-08-03T01:39:19;1.70;;;1.38;;
32475;SDS011;18929;48.008;10.882;2022-08-03T01:41:48;4.35;;;1.40;;
32475;SDS011;18929;48.008;10.882;2022-08-03T01:44:18;2.15;;;1.13;;
32475;SDS011;18929;48.008;10.882;2022-08-03T01:46:47;3.90;;;1.27;;
32475;SDS011;18929;48.008;10.882;2022-08-03T01:49:15;4.65;;;1.50;;
32475;SDS011;18929;48.008;10.882;2022-08-03T01:51:46;2.45;;;1.33;;
32475;SDS011;18929;48.008;10.882;2022-08-03T01:54:14;4.57;;;1.40;;
32475;SDS011;18929;48.008;10.882;2022-08-03T01:56:42;6.53;;;1.50;;
32475;SDS011;18929;48.008;10.882;2022-08-03T03:40:54;6.55;;;2.10;;
32475;SDS011;18929;48.008;10.882;2022-08-03T03:43:21;4.93;;;2.05;;
32475;SDS011;18929;48.008;10.882;2022-08-03T03:45:49;3.25;;;1.92;;
32475;SDS011;18929;48.008;10.882;2022-08-03T03:48:27;3.58;;;1.65;;
32475;SDS011;18929;48.008;10.882;2022-08-03T03:50:54;3.17;;;1.63;;
32475;SDS011;18929;48.008;10.882;2022-08-03T03:53:23;4.00;;;1.77;;
32475;SDS011;18929;48.008;10.882;2022-08-03T03:55:50;2.90;;;1.67;;
32475;SDS011;18929;48.008;10.882;2022-08-03T03:58:20;5.85;;;2.00;;
32475;SDS011;18929;48.008;10.882;2022-08-03T04:00:47;3.80;;;1.92;;
32475;SDS011;18929;48.008;10.882;2022-08-03T04:03:14;4.78;;;1.90;;
32475;SDS011;18929;48.008;10.882;2022-08-03T04:05:41;4.35;;;1.73;;
32475;SDS011;18929;48.008;10.882;2022-08-03T04:08:26;3.83;;;1.98;;
32475;SDS011;18929;48.008;10.882;2022-08-03T04:11:12;3.28;;;2.08;;
32475;SDS011;18929;48.008;10.882;2022-08-03T04:13:45;3.85;;;1.90;;
32475;SDS011;18929;48.008;10.882;2022-08-03T04:16:16;7.65;;;2.05;;
32475;SDS011;18929;48.008;10.882;2022-08-03T04:18:48;4.75;;;1.92;;
32475;SDS011;18929;48.008;10.882;2022-08-03T04:21:19;4.10;;;2.20;;
32475;SDS011;18929;48.008;10.882;2022-08-03T04:23:58;7.07;;;1.90;;
32475;SDS011;18929;48.008;10.882;2022-08-03T04:26:28;5.65;;;1.60;;
32475;SDS011;18929;48.008;10.882;2022-08-03T04:29:00;2.93;;;1.93;;
32475;SDS011;18929;48.008;10.882;2022-08-03T04:31:29;4.70;;;1.88;;
32475;SDS011;18929;48.008;10.882;2022-08-03T04:33:56;2.17;;;1.52;;
32475;SDS011;18929;48.008;10.882;2022-08-03T04:36:25;5.32;;;2.20;;
32475;SDS011;18929;48.008;10.882;2022-08-03T04:38:58;3.80;;;1.98;;
32475;SDS011;18929;48.008;10.882;2022-08-03T04:41:27;3.47;;;2.00;;
32475;SDS011;18929;48.008;10.882;2022-08-03T04:43:57;3.15;;;1.77;;
32475;SDS011;18929;48.008;10.882;2022-08-03T04:46:27;3.75;;;1.90;;
32475;SDS011;18929;48.008;10.882;2022-08-03T04:48:58;2.83;;;1.80;;
32475;SDS011;18929;48.008;10.882;2022-08-03T04:51:26;3.00;;;1.65;;
32475;SDS011;18929;48.008;10.882;2022-08-03T04:53:54;4.22;;;1.83;;
32475;SDS011;18929;48.008;10.882;2022-08-03T04:56:21;3.85;;;1.67;;
32475;SDS011;18929;48.008;10.882;2022-08-03T04:58:48;4.05;;;1.90;;
32475;SDS011;18929;48.008;10.882;2022-08-03T05:01:15;3.08;;;1.90;;
32475;SDS011;18929;48.008;10.882;2022-08-03T05:03:46;3.33;;;2.00;;
32475;SDS011;18929;48.008;10.882;2022-08-03T05:06:15;2.38;;;1.70;;
32475;SDS011;18929;48.008;10.882;2022-08-03T05:08:42;4.75;;;2.30;;
32475;SDS011;18929;48.008;10.882;2022-08-03T05:11:10;3.63;;;1.80;;
32475;SDS011;18929;48.008;10.882;2022-08-03T05:13:37;3.70;;;2.10;;
32475;SDS011;18929;48.008;10.882;2022-08-03T05:16:04;6.43;;;2.50;;
32475;SDS011;18929;48.008;10.882;2022-08-03T05:18:31;3.70;;;2.28;;
32475;SDS011;18929;48.008;10.882;2022-08-03T05:21:02;3.28;;;2.20;;
32475;SDS011;18929;48.008;10.882;2022-08-03T05:23:30;4.80;;;1.80;;
32475;SDS011;18929;48.008;10.882;2022-08-03T05:25:57;4.22;;;2.00;;
32475;SDS011;18929;48.008;10.882;2022-08-03T05:28:30;5.18;;;1.95;;
32475;SDS011;18929;48.008;10.882;2022-08-03T05:30:58;6.10;;;2.50;;
32475;SDS011;18929;48.008;10.882;2022-08-03T05:40:45;4.43;;;1.85;;
32475;SDS011;18929;48.008;10.882;2022-08-03T05:43:12;3.63;;;2.13;;
32475;SDS011;18929;48.008;10.882;2022-08-03T05:45:39;4.00;;;2.00;;
32475;SDS011;18929;48.008;10.882;2022-08-03T05:48:06;5.80;;;2.70;;
32475;SDS011;18929;48.008;10.882;2022-08-03T05:53:52;6.43;;;3.05;;
32475;SDS011;18929;48.008;10.882;2022-08-03T06:01:50;6.47;;;2.20;;
32475;SDS011;18929;48.008;10.882;2022-08-03T06:04:17;5.57;;;2.78;;
32475;SDS011;18929;48.008;10.882;2022-08-03T06:06:44;4.57;;;2.47;;
32475;SDS011;18929;48.008;10.882;2022-08-03T06:09:12;5.07;;;2.78;;
32475;SDS011;18929;48.008;10.882;2022-08-03T06:11:50;4.28;;;2.70;;
32475;SDS011;18929;48.008;10.882;2022-08-03T06:14:17;6.00;;;2.70;;
32475;SDS011;18929;48.008;10.882;2022-08-03T06:16:44;9.00;;;2.97;;
32475;SDS011;18929;48.008;10.882;2022-08-03T06:21:59;5.88;;;2.30;;
32475;SDS011;18929;48.008;10.882;2022-08-03T06:24:26;4.50;;;2.33;;
32475;SDS011;18929;48.008;10.882;2022-08-03T06:26:54;6.15;;;2.30;;
32475;SDS011;18929;48.008;10.882;2022-08-03T06:29:21;5.20;;;2.65;;
32475;SDS011;18929;48.008;10.882;2022-08-03T06:31:49;7.90;;;2.97;;
32475;SDS011;18929;48.008;10.882;2022-08-03T06:34:16;3.55;;;2.40;;
32475;SDS011;18929;48.008;10.882;2022-08-03T06:36:43;5.22;;;2.60;;
32475;SDS011;18929;48.008;10.882;2022-08-03T06:39:12;3.85;;;2.58;;
32475;SDS011;18929;48.008;10.882;2022-08-03T06:41:39;4.15;;;2.60;;
32475;SDS011;18929;48.008;10.882;2022-08-03T06:44:08;4.88;;;2.40;;
32475;SDS011;18929;48.008;10.882;2022-08-03T06:46:35;5.53;;;2.40;;
32475;SDS011;18929;48.008;10.882;2022-08-03T06:49:02;6.75;;;2.60;;
32475;SDS011;18929;48.008;10.882;2022-08-03T06:51:29;3.20;;;2.40;;
32475;SDS011;18929;48.008;10.882;2022-08-03T06:53:56;4.90;;;2.60;;
32475;SDS011;18929;48.008;10.882;2022-08-03T06:56:23;3.17;;;2.08;;
32475;SDS011;18929;48.008;10.882;2022-08-03T06:58:50;3.10;;;2.17;;
32475;SDS011;18929;48.008;10.882;2022-08-03T07:01:23;5.72;;;2.40;;
32475;SDS011;18929;48.008;10.882;2022-08-03T07:03:53;3.85;;;2.10;;
32475;SDS011;18929;48.008;10.882;2022-08-03T07:06:24;5.20;;;2.47;;
32475;SDS011;18929;48.008;10.882;2022-08-03T07:09:01;7.05;;;2.00;;
32475;SDS011;18929;48.008;10.882;2022-08-03T07:11:28;2.92;;;2.00;;
32475;SDS011;18929;48.008;10.882;2022-08-03T07:13:56;2.67;;;1.98;;
32475;SDS011;18929;48.008;10.882;2022-08-03T07:16:28;4.95;;;2.75;;
32475;SDS011;18929;48.008;10.882;2022-08-03T07:18:55;5.72;;;2.15;;
32475;SDS011;18929;48.008;10.882;2022-08-03T07:21:22;2.72;;;2.20;;
32475;SDS011;18929;48.008;10.882;2022-08-03T07:23:49;4.13;;;2.13;;
32475;SDS011;18929;48.008;10.882;2022-08-03T07:26:19;6.80;;;2.30;;
32475;SDS011;18929;48.008;10.882;2022-08-03T07:28:47;4.72;;;2.35;;
32475;SDS011;18929;48.008;10.882;2022-08-03T07:31:14;4.53;;;1.80;;
32475;SDS011;18929;48.008;10.882;2022-08-03T07:33:43;3.58;;;1.75;;
32475;SDS011;18929;48.008;10.882;2022-08-03T07:36:14;2.83;;;1.43;;
32475;SDS011;18929;48.008;10.882;2022-08-03T07:38:49;2.63;;;1.40;;
32475;SDS011;18929;48.008;10.882;2022-08-03T07:41:19;4.57;;;1.58;;
32475;SDS011;18929;48.008;10.882;2022-08-03T07:43:46;2.28;;;1.42;;
32475;SDS011;18929;48.008;10.882;2022-08-03T07:46:14;2.80;;;1.30;;
32475;SDS011;18929;48.008;10.882;2022-08-03T07:48:42;1.77;;;1.25;;
32475;SDS011;18929;48.008;10.882;2022-08-03T07:51:10;4.22;;;1.15;;
32475;SDS011;18929;48.008;10.882;2022-08-03T07:53:39;2.50;;;1.50;;
32475;SDS011;18929;48.008;10.882;2022-08-03T07:56:10;3.20;;;1.20;;
32475;SDS011;18929;48.008;10.882;2022-08-03T07:58:39;3.50;;;1.83;;
32475;SDS011;18929;48.008;10.882;2022-08-03T08:01:06;2.70;;;1.48;;
32475;SDS011;18929;48.008;10.882;2022-08-03T08:03:34;1.38;;;1.20;;
32475;SDS011;18929;48.008;10.882;2022-08-03T08:06:02;3.83;;;1.50;;
32475;SDS011;18929;48.008;10.882;2022-08-03T08:08:30;5.47;;;1.20;;
32475;SDS011;18929;48.008;10.882;2022-08-03T08:10:57;2.33;;;1.30;;
32475;SDS011;18929;48.008;10.882;2022-08-03T08:16:29;2.13;;;1.30;;
32475;SDS011;18929;48.008;10.882;2022-08-03T08:18:57;1.48;;;1.20;;
32475;SDS011;18929;48.008;10.882;2022-08-03T08:21:32;2.53;;;1.40;;
32475;SDS011;18929;48.008;10.882;2022-08-03T08:23:59;2.33;;;1.63;;
32475;SDS011;18929;48.008;10.882;2022-08-03T08:26:41;1.48;;;1.30;;
32475;SDS011;18929;48.008;10.882;2022-08-03T08:29:12;1.73;;;1.10;;
32475;SDS011;18929;48.008;10.882;2022-08-03T08:31:39;3.28;;;1.38;;
32475;SDS011;18929;48.008;10.882;2022-08-03T08:34:06;2.42;;;1.30;;
32475;SDS011;18929;48.008;10.882;2022-08-03T08:36:36;3.15;;;1.38;;
32475;SDS011;18929;48.008;10.882;2022-08-03T08:39:03;2.45;;;1.30;;
32475;SDS011;18929;48.008;10.882;2022-08-03T08:41:30;1.92;;;1.33;;
32475;SDS011;18929;48.008;10.882;2022-08-03T08:43:59;3.40;;;0.90;;
32475;SDS011;18929;48.008;10.882;2022-08-03T08:46:26;3.42;;;1.30;;
32475;SDS011;18929;48.008;10.882;2022-08-03T08:48:54;2.55;;;1.10;;
32475;SDS011;18929;48.008;10.882;2022-08-03T08:51:25;2.28;;;1.27;;
32475;SDS011;18929;48.008;10.882;2022-08-03T08:53:56;3.40;;;0.80;;
32475;SDS011;18929;48.008;10.882;2022-08-03T08:56:43;2.92;;;1.05;;
32475;SDS011;18929;48.008;10.882;2022-08-03T08:59:10;3.03;;;1.17;;
32475;SDS011;18929;48.008;10.882;2022-08-03T09:01:40;2.75;;;1.10;;
32475;SDS011;18929;48.008;10.882;2022-08-03T09:04:07;2.05;;;1.27;;
32475;SDS011;18929;48.008;10.882;2022-08-03T09:06:37;1.75;;;0.90;;
32475;SDS011;18929;48.008;10.882;2022-08-03T09:09:29;1.75;;;1.15;;
32475;SDS011;18929;48.008;10.882;2022-08-03T09:11:56;2.67;;;1.00;;
32475;SDS011;18929;48.008;10.882;2022-08-03T09:14:37;1.92;;;1.10;;
32475;SDS011;18929;48.008;10.882;2022-08-03T09:17:05;2.28;;;1.00;;
32475;SDS011;18929;48.008;10.882;2022-08-03T09:19:34;0.80;;;0.80;;
32475;SDS011;18929;48.008;10.882;2022-08-03T09:22:08;1.73;;;0.90;;
32475;SDS011;18929;48.008;10.882;2022-08-03T09:24:54;4.53;;;1.05;;
32475;SDS011;18929;48.008;10.882;2022-08-03T09:27:24;2.75;;;0.90;;
32475;SDS011;18929;48.008;10.882;2022-08-03T09:29:52;1.95;;;1.05;;
32475;SDS011;18929;48.008;10.882;2022-08-03T09:32:20;1.02;;;0.93;;
32475;SDS011;18929;48.008;10.882;2022-08-03T09:34:47;3.33;;;1.00;;
32475;SDS011;18929;48.008;10.882;2022-08-03T09:37:16;1.65;;;0.93;;
32475;SDS011;18929;48.008;10.882;2022-08-03T09:39:44;4.50;;;1.02;;
32475;SDS011;18929;48.008;10.882;2022-08-03T09:42:20;1.67;;;0.75;;
32475;SDS011;18929;48.008;10.882;2022-08-03T09:44:48;2.47;;;1.00;;
32475;SDS011;18929;48.008;10.882;2022-08-03T09:47:16;1.00;;;0.80;;
32475;SDS011;18929;48.008;10.882;2022-08-03T09:49:57;1.45;;;0.85;;
32475;SDS011;18929;48.008;10.882;2022-08-03T09:52:29;3.45;;;1.17;;
32475;SDS011;18929;48.008;10.882;2022-08-03T09:54:57;1.23;;;0.82;;
32475;SDS011;18929;48.008;10.882;2022-08-03T09:57:27;1.60;;;1.00;;
32475;SDS011;18929;48.008;10.882;2022-08-03T10:00:04;1.77;;;0.85;;
32475;SDS011;18929;48.008;10.882;2022-08-03T10:02:34;3.03;;;1.13;;
32475;SDS011;18929;48.008;10.882;2022-08-03T10:05:03;1.98;;;1.10;;
32475;SDS011;18929;48.008;10.882;2022-08-03T10:07:40;1.38;;;0.88;;
32475;SDS011;18929;48.008;10.882;2022-08-03T10:10:08;0.88;;;0.80;;
32475;SDS011;18929;48.008;10.882;2022-08-03T10:12:37;5.03;;;1.10;;
32475;SDS011;18929;48.008;10.882;2022-08-03T10:15:06;2.17;;;1.20;;
32475;SDS011;18929;48.008;10.882;2022-08-03T10:17:33;2.83;;;1.00;;
32475;SDS011;18929;48.008;10.882;2022-08-03T10:20:01;2.30;;;0.93;;
32475;SDS011;18929;48.008;10.882;2022-08-03T10:22:31;3.88;;;1.00;;
32475;SDS011;18929;48.008;10.882;2022-08-03T10:25:01;2.50;;;0.82;;
32475;SDS011;18929;48.008;10.882;2022-08-03T10:27:32;3.65;;;0.75;;
32475;SDS011;18929;48.008;10.882;2022-08-03T10:30:03;4.78;;;0.85;;
32475;SDS011;18929;48.008;10.882;2022-08-03T10:32:33;0.57;;;0.50;;
32475;SDS011;18929;48.008;10.882;2022-08-03T10:35:05;1.38;;;0.80;;
32475;SDS011;18929;48.008;10.882;2022-08-03T10:37:42;3.30;;;1.00;;
32475;SDS011;18929;48.008;10.882;2022-08-03T10:40:12;2.45;;;0.70;;
32475;SDS011;18929;48.008;10.882;2022-08-03T10:42:40;2.33;;;0.70;;
32475;SDS011;18929;48.008;10.882;2022-08-03T10:45:12;2.35;;;1.13;;
32475;SDS011;18929;48.008;10.882;2022-08-03T10:47:43;2.72;;;0.80;;
32475;SDS011;18929;48.008;10.882;2022-08-03T10:50:11;1.70;;;0.98;;
32475;SDS011;18929;48.008;10.882;2022-08-03T10:52:52;1.00;;;0.70;;
32475;SDS011;18929;48.008;10.882;2022-08-03T10:55:30;3.03;;;0.95;;
32475;SDS011;18929;48.008;10.882;2022-08-03T11:01:15;1.42;;;1.00;;
32475;SDS011;18929;48.008;10.882;2022-08-03T11:06:41;1.45;;;0.70;;
32475;SDS011;18929;48.008;10.882;2022-08-03T11:09:16;1.80;;;0.80;;
32475;SDS011;18929;48.008;10.882;2022-08-03T11:11:44;3.70;;;1.00;;
32475;SDS011;18929;48.008;10.882;2022-08-03T11:14:14;1.13;;;0.90;;
32475;SDS011;18929;48.008;10.882;2022-08-03T11:16:46;4.18;;;0.90;;
32475;SDS011;18929;48.008;10.882;2022-08-03T11:19:16;2.50;;;0.80;;
32475;SDS011;18929;48.008;10.882;2022-08-03T11:21:56;3.50;;;0.75;;
32475;SDS011;18929;48.008;10.882;2022-08-03T11:27:22;1.35;;;1.10;;
32475;SDS011;18929;48.008;10.882;2022-08-03T11:29:54;4.05;;;1.05;;
32475;SDS011;18929;48.008;10.882;2022-08-03T11:35:09;2.83;;;0.85;;
32475;SDS011;18929;48.008;10.882;2022-08-03T11:38:00;1.75;;;0.75;;
32475;SDS011;18929;48.008;10.882;2022-08-03T11:40:37;1.92;;;0.85;;
32475;SDS011;18929;48.008;10.882;2022-08-03T11:43:06;3.40;;;0.88;;
32475;SDS011;18929;48.008;10.882;2022-08-03T11:45:35;3.63;;;1.17;;
32475;SDS011;18929;48.008;10.882;2022-08-03T11:48:11;1.50;;;0.90;;
32475;SDS011;18929;48.008;10.882;2022-08-03T11:50:41;1.60;;;0.90;;
32475;SDS011;18929;48.008;10.882;2022-08-03T11:53:13;1.00;;;0.90;;
32475;SDS011;18929;48.008;10.882;2022-08-03T11:55:42;1.33;;;0.80;;
32475;SDS011;18929;48.008;10.882;2022-08-03T11:58:16;1.70;;;0.80;;
32475;SDS011;18929;48.008;10.882;2022-08-03T12:00:44;2.15;;;0.98;;
32475;SDS011;18929;48.008;10.882;2022-08-03T12:03:12;3.03;;;1.00;;
32475;SDS011;18929;48.008;10.882;2022-08-03T12:08:30;29.90;;;2.90;;
32475;SDS011;18929;48.008;10.882;2022-08-03T12:10:59;14.38;;;2.50;;
32475;SDS011;18929;48.008;10.882;2022-08-03T12:13:34;16.48;;;2.00;;
32475;SDS011;18929;48.008;10.882;2022-08-03T12:16:03;14.20;;;2.15;;
32475;SDS011;18929;48.008;10.882;2022-08-03T12:18:31;5.53;;;1.52;;
32475;SDS011;18929;48.008;10.882;2022-08-03T12:21:04;12.00;;;1.40;;
32475;SDS011;18929;48.008;10.882;2022-08-03T12:23:47;8.55;;;1.55;;
32475;SDS011;18929;48.008;10.882;2022-08-03T12:26:14;9.10;;;1.35;;
32475;SDS011;18929;48.008;10.882;2022-08-03T12:28:46;2.00;;;0.98;;
32475;SDS011;18929;48.008;10.882;2022-08-03T12:31:13;0.77;;;0.68;;
32475;SDS011;18929;48.008;10.882;2022-08-03T12:33:54;3.78;;;0.80;;
32475;SDS011;18929;48.008;10.882;2022-08-03T12:36:29;3.75;;;0.65;;
32475;SDS011;18929;48.008;10.882;2022-08-03T12:38:58;0.63;;;0.60;;
32475;SDS011;18929;48.008;10.882;2022-08-03T12:41:27;2.35;;;0.70;;
32475;SDS011;18929;48.008;10.882;2022-08-03T12:43:55;1.45;;;0.90;;
32475;SDS011;18929;48.008;10.882;2022-08-03T12:46:27;1.52;;;0.88;;
32475;SDS011;18929;48.008;10.882;2022-08-03T12:49:04;0.57;;;0.57;;
32475;SDS011;18929;48.008;10.882;2022-08-03T12:54:32;2.05;;;0.95;;
32475;SDS011;18929;48.008;10.882;2022-08-03T12:57:00;4.55;;;0.88;;
32475;SDS011;18929;48.008;10.882;2022-08-03T12:59:29;0.63;;;0.60;;
32475;SDS011;18929;48.008;10.882;2022-08-03T13:01:57;3.08;;;0.85;;
32475;SDS011;18929;48.008;10.882;2022-08-03T13:07:49;1.17;;;0.80;;
32475;SDS011;18929;48.008;10.882;2022-08-03T13:10:26;3.08;;;0.75;;
32475;SDS011;18929;48.008;10.882;2022-08-03T13:12:54;1.83;;;0.70;;
32475;SDS011;18929;48.008;10.882;2022-08-03T13:15:27;1.65;;;0.90;;
32475;SDS011;18929;48.008;10.882;2022-08-03T13:17:55;3.37;;;1.10;;
32475;SDS011;18929;48.008;10.882;2022-08-03T13:20:23;1.02;;;0.75;;
32475;SDS011;18929;48.008;10.882;2022-08-03T13:22:51;1.63;;;0.88;;
32475;SDS011;18929;48.008;10.882;2022-08-03T13:25:23;1.55;;;0.80;;
32475;SDS011;18929;48.008;10.882;2022-08-03T13:30:47;0.90;;;0.70;;
32475;SDS011;18929;48.008;10.882;2022-08-03T13:33:14;1.75;;;0.70;;
32475;SDS011;18929;48.008;10.882;2022-08-03T13:35:41;1.05;;;0.75;;
32475;SDS011;18929;48.008;10.882;2022-08-03T13:38:10;4.88;;;0.80;;
32475;SDS011;18929;48.008;10.882;2022-08-03T13:40:37;0.77;;;0.77;;
32475;SDS011;18929;48.008;10.882;2022-08-03T13:43:07;1.30;;;0.98;;
32475;SDS011;18929;48.008;10.882;2022-08-03T13:45:34;0.80;;;0.70;;
32475;SDS011;18929;48.008;10.882;2022-08-03T13:48:01;1.80;;;0.90;;
32475;SDS011;18929;48.008;10.882;2022-08-03T13:50:28;1.48;;;0.77;;
32475;SDS011;18929;48.008;10.882;2022-08-03T13:52:56;2.42;;;0.65;;
32475;SDS011;18929;48.008;10.882;2022-08-03T13:55:25;3.15;;;0.80;;
32475;SDS011;18929;48.008;10.882;2022-08-03T13:57:52;2.53;;;0.95;;
32475;SDS011;18929;48.008;10.882;2022-08-03T14:00:19;1.10;;;0.80;;
32475;SDS011;18929;48.008;10.882;2022-08-03T14:02:50;2.30;;;0.93;;
32475;SDS011;18929;48.008;10.882;2022-08-03T14:05:17;1.27;;;0.80;;
32475;SDS011;18929;48.008;10.882;2022-08-03T14:07:44;0.68;;;0.60;;
32475;SDS011;18929;48.008;10.882;2022-08-03T14:17:15;1.33;;;0.68;;
32475;SDS011;18929;48.008;10.882;2022-08-03T14:19:42;3.03;;;1.10;;
32475;SDS011;18929;48.008;10.882;2022-08-03T14:22:11;1.45;;;0.80;;
32475;SDS011;18929;48.008;10.882;2022-08-03T14:24:41;2.33;;;1.08;;
32475;SDS011;18929;48.008;10.882;2022-08-03T14:27:11;4.82;;;1.02;;
32475;SDS011;18929;48.008;10.882;2022-08-03T14:30:26;2.05;;;1.00;;
32475;SDS011;18929;48.008;10.882;2022-08-03T14:33:02;0.90;;;0.80;;
32475;SDS011;18929;48.008;10.882;2022-08-03T14:56:14;2.55;;;1.00;;
32475;SDS011;18929;48.008;10.882;2022-08-03T14:58:41;1.65;;;1.10;;
32475;SDS011;18929;48.008;10.882;2022-08-03T15:01:08;1.10;;;0.93;;
32475;SDS011;18929;48.008;10.882;2022-08-03T15:03:35;1.85;;;0.98;;
32475;SDS011;18929;48.008;10.882;2022-08-03T15:06:02;2.95;;;1.10;;
32475;SDS011;18929;48.008;10.882;2022-08-03T15:08:29;1.33;;;1.00;;
32475;SDS011;18929;48.008;10.882;2022-08-03T15:10:58;2.05;;;0.98;;
32475;SDS011;18929;48.008;10.882;2022-08-03T15:13:25;2.30;;;0.73;;
32475;SDS011;18929;48.008;10.882;2022-08-03T15:15:52;1.02;;;0.80;;
32475;SDS011;18929;48.008;10.882;2022-08-03T15:18:21;2.10;;;0.88;;
32475;SDS011;18929;48.008;10.882;2022-08-03T15:20:58;1.27;;;0.80;;
32475;SDS011;18929;48.008;10.882;2022-08-03T15:23:27;2.78;;;1.00;;
32475;SDS011;18929;48.008;10.882;2022-08-03T15:25:59;4.15;;;0.95;;
32475;SDS011;18929;48.008;10.882;2022-08-03T15:28:26;2.22;;;0.95;;
32475;SDS011;18929;48.008;10.882;2022-08-03T15:30:53;1.05;;;0.75;;
32475;SDS011;18929;48.008;10.882;2022-08-03T15:33:20;1.02;;;0.80;;
32475;SDS011;18929;48.008;10.882;2022-08-03T15:35:50;1.60;;;0.90;;
32475;SDS011;18929;48.008;10.882;2022-08-03T15:38:17;0.77;;;0.70;;
32475;SDS011;18929;48.008;10.882;2022-08-03T15:40:47;1.50;;;0.80;;
32475;SDS011;18929;48.008;10.882;2022-08-03T15:43:15;1.85;;;0.90;;
32475;SDS011;18929;48.008;10.882;2022-08-03T15:45:45;1.27;;;0.80;;
32475;SDS011;18929;48.008;10.882;2022-08-03T15:48:12;5.07;;;0.70;;
32475;SDS011;18929;48.008;10.882;2022-08-03T15:50:39;0.88;;;0.70;;
32475;SDS011;18929;48.008;10.882;2022-08-03T15:53:07;1.42;;;0.60;;
32475;SDS011;18929;48.008;10.882;2022-08-03T15:55:34;4.40;;;0.85;;
32475;SDS011;18929;48.008;10.882;2022-08-03T15:58:01;1.83;;;0.90;;
32475;SDS011;18929;48.008;10.882;2022-08-03T16:00:30;1.13;;;0.80;;
32475;SDS011;18929;48.008;10.882;2022-08-03T16:02:57;1.58;;;0.90;;
32475;SDS011;18929;48.008;10.882;2022-08-03T16:05:24;1.30;;;0.90;;
32475;SDS011;18929;48.008;10.882;2022-08-03T16:07:51;2.25;;;0.70;;
32475;SDS011;18929;48.008;10.882;2022-08-03T16:10:19;4.68;;;0.93;;
32475;SDS011;18929;48.008;10.882;2022-08-03T16:12:46;1.83;;;1.00;;
32475;SDS011;18929;48.008;10.882;2022-08-03T16:15:14;4.07;;;0.90;;
32475;SDS011;18929;48.008;10.882;2022-08-03T16:17:42;1.60;;;1.05;;
32475;SDS011;18929;48.008;10.882;2022-08-03T16:20:10;3.33;;;1.30;;
32475;SDS011;18929;48.008;10.882;2022-08-03T16:22:42;2.10;;;1.00;;
32475;SDS011;18929;48.008;10.882;2022-08-03T16:25:10;4.18;;;0.70;;
32475;SDS011;18929;48.008;10.882;2022-08-03T16:27:37;2.28;;;1.10;;
32475;SDS011;18929;48.008;10.882;2022-08-03T16:30:08;1.10;;;1.00;;
32475;SDS011;18929;48.008;10.882;2022-08-03T16:32:37;2.10;;;0.93;;
32475;SDS011;18929;48.008;10.882;2022-08-03T16:35:06;1.77;;;0.98;;
32475;SDS011;18929;48.008;10.882;2022-08-03T16:37:34;1.70;;;0.82;;
32475;SDS011;18929;48.008;10.882;2022-08-03T16:40:01;2.83;;;0.88;;
32475;SDS011;18929;48.008;10.882;2022-08-03T16:42:30;3.15;;;1.08;;
32475;SDS011;18929;48.008;10.882;2022-08-03T16:44:59;2.65;;;0.85;;
32475;SDS011;18929;48.008;10.882;2022-08-03T16:47:32;1.58;;;0.75;;
32475;SDS011;18929;48.008;10.882;2022-08-03T16:49:59;4.13;;;0.80;;
32475;SDS011;18929;48.008;10.882;2022-08-03T16:52:30;2.72;;;0.90;;
32475;SDS011;18929;48.008;10.882;2022-08-03T16:55:07;1.17;;;0.70;;
32475;SDS011;18929;48.008;10.882;2022-08-03T16:57:38;0.88;;;0.82;;
32475;SDS011;18929;48.008;10.882;2022-08-03T17:00:06;1.77;;;0.90;;
32475;SDS011;18929;48.008;10.882;2022-08-03T17:02:34;2.70;;;0.73;;
32475;SDS011;18929;48.008;10.882;2022-08-03T17:10:58;2.80;;;0.90;;
32475;SDS011;18929;48.008;10.882;2022-08-03T17:13:25;1.67;;;0.73;;
32475;SDS011;18929;48.008;10.882;2022-08-03T17:15:52;1.33;;;0.80;;
32475;SDS011;18929;48.008;10.882;2022-08-03T17:18:21;0.70;;;0.70;;
32475;SDS011;18929;48.008;10.882;2022-08-03T17:20:49;3.17;;;0.90;;
32475;SDS011;18929;48.008;10.882;2022-08-03T17:23:24;1.27;;;0.85;;
32475;SDS011;18929;48.008;10.882;2022-08-03T17:26:02;2.63;;;0.90;;
32475;SDS011;18929;48.008;10.882;2022-08-03T17:28:31;2.35;;;0.70;;
32475;SDS011;18929;48.008;10.882;2022-08-03T17:31:04;1.85;;;0.80;;
32475;SDS011;18929;48.008;10.882;2022-08-03T17:33:44;1.33;;;0.90;;
32475;SDS011;18929;48.008;10.882;2022-08-03T17:36:13;4.50;;;1.00;;
32475;SDS011;18929;48.008;10.882;2022-08-03T17:38:45;2.50;;;0.82;;
32475;SDS011;18929;48.008;10.882;2022-08-03T17:41:14;0.88;;;0.68;;
32475;SDS011;18929;48.008;10.882;2022-08-03T17:43:41;0.75;;;0.63;;
32475;SDS011;18929;48.008;10.882;2022-08-03T17:46:09;1.13;;;0.60;;
32475;SDS011;18929;48.008;10.882;2022-08-03T17:48:36;3.05;;;0.90;;
32475;SDS011;18929;48.008;10.882;2022-08-03T17:51:05;1.38;;;0.88;;
